Mackinac Island, MI

1:56 PM EDT on September 28, 2016 (GMT -0400)
Mackinac Island

Weather History for KMCD - October, 2013

Change the Weather History Date:

Sunday, October 20, 2013

  Actual Average Record
Temperature  
Mean Temperature 44 °F -  
Max Temperature 50 °F 49 °F 68 °F (1979)
Min Temperature 37 °F 39 °F 24 °F (1974)
Degree Days  
Heating Degree Days 22    
Moisture  
Dew Point 38 °F    
Average Humidity 79    
Maximum Humidity 98    
Minimum Humidity 57    
Precipitation  
Precipitation 0.08 in - - ()
Sea Level Pressure  
Sea Level Pressure 29.75 in    
Wind  
Wind Speed 7 mph (SSW)    
Max Wind Speed 13 mph    
Max Gust Speed 21 mph    
Visibility 10 miles    
Events Rain    
Averages and records for this station are not official NWS values.
T = Trace of Precipitation, MM = Missing Value Source: NWS Daily Summary

Daily Weather History Graph

Daily Weather History Graph

Search for Another Location

Airport or City:

Trip Planner

Search our weather history database for the weather conditions in past years. The results will help you decide how hot, cold, wet, or windy it might be!

Date:

Astronomy

Oct. 20, 2013 Rise Set
Actual Time 8:02 AM EDT 6:43 PM EDT
Civil Twilight 7:32 AM EDT 7:13 PM EDT
Nautical Twilight 6:57 AM EDT 7:48 PM EDT
Astronomical Twilight 6:22 AM EDT 8:22 PM EDT
Moon 7:45 PM EDT (10/20) 9:44 AM EDT (10/20)
Length of Visible Light 11h 41m
Length of Day
10h 41m
Full, 97% of the Moon is Illuminated
Oct 20
Full
Oct 26
Last Quarter
Nov 3
New
Nov 10
First Quarter
Nov 17
Full

Hourly Weather History & Observations

Time (EDT) Temp. Windchill Dew Point Humidity Pressure Visibility Wind Dir Wind Speed Gust Speed Precip Events Conditions
12:19 AM 40.6 °F 35.4 °F 37.8 °F 89% 29.71 in 10.0 mi South 8.1 mph - N/A   Clear
12:39 AM 40.6 °F 35.4 °F 38.3 °F 91% 29.71 in 10.0 mi South 8.1 mph - N/A   Clear
12:59 AM 41.0 °F 35.2 °F 37.6 °F 88% 29.71 in 10.0 mi South 9.2 mph - N/A   Scattered Clouds
1:19 AM 40.6 °F 34.8 °F 37.8 °F 89% 29.71 in 10.0 mi SSW 9.2 mph - N/A   Clear
1:39 AM 41.2 °F 35.5 °F 38.5 °F 90% 29.71 in 10.0 mi SSW 9.2 mph - N/A   Mostly Cloudy
1:59 AM 41.9 °F 35.9 °F 39.0 °F 90% 29.70 in 10.0 mi South 10.4 mph - N/A   Overcast
2:19 AM 42.1 °F 36.1 °F 38.8 °F 88% 29.70 in 10.0 mi South 10.4 mph 16.1 mph N/A   Overcast
2:39 AM 42.1 °F 36.6 °F 38.5 °F 87% 29.70 in 10.0 mi SSW 9.2 mph 16.1 mph N/A   Scattered Clouds
2:59 AM 42.1 °F 36.6 °F 38.7 °F 88% 29.71 in 10.0 mi SSW 9.2 mph - N/A   Clear
3:19 AM 41.5 °F 36.4 °F 38.1 °F 88% 29.71 in 10.0 mi SSW 8.1 mph 17.3 mph N/A   Clear
3:39 AM 41.9 °F 36.3 °F 38.5 °F 88% 29.71 in 10.0 mi SSW 9.2 mph - N/A   Clear
3:59 AM 41.5 °F 37.8 °F 38.7 °F 89% 29.71 in 10.0 mi SW 5.8 mph - N/A   Clear
4:19 AM 41.7 °F 36.7 °F 38.3 °F 88% 29.71 in 10.0 mi SW 8.1 mph - N/A   Clear
4:39 AM 42.3 °F 37.9 °F 38.3 °F 86% 29.71 in 10.0 mi SW 6.9 mph - N/A   Clear
4:59 AM 42.3 °F 37.9 °F 38.3 °F 86% 29.71 in 10.0 mi WSW 6.9 mph - N/A   Clear
5:19 AM 42.8 °F 38.6 °F 38.1 °F 84% 29.71 in 10.0 mi SW 6.9 mph - N/A   Clear
5:39 AM 42.8 °F 39.3 °F 38.5 °F 85% 29.71 in 10.0 mi SW 5.8 mph - N/A   Scattered Clouds
5:59 AM 42.8 °F 40.1 °F 38.8 °F 86% 29.71 in 10.0 mi SW 4.6 mph - N/A   Mostly Cloudy
6:19 AM 41.7 °F 38.8 °F 37.9 °F 86% 29.72 in 10.0 mi SW 4.6 mph - N/A   Mostly Cloudy
6:39 AM 43.0 °F 40.3 °F 37.6 °F 81% 29.72 in 10.0 mi SW 4.6 mph - N/A   Mostly Cloudy
6:59 AM 42.1 °F 38.4 °F 37.4 °F 83% 29.72 in 10.0 mi WSW 5.8 mph - N/A   Clear
7:19 AM 39.6 °F 37.4 °F 36.9 °F 90% 29.72 in 10.0 mi SW 3.5 mph - N/A   Clear
7:39 AM 38.3 °F 35.9 °F 37.4 °F 97% 29.73 in 10.0 mi WSW 3.5 mph - N/A   Clear
7:59 AM 37.6 °F 32.3 °F 37.0 °F 98% 29.74 in 7.0 mi WSW 6.9 mph - N/A   Clear
8:19 AM 43.0 °F 38.8 °F 37.4 °F 81% 29.74 in 10.0 mi South 6.9 mph - N/A   Clear
8:39 AM 41.9 °F 38.2 °F 38.3 °F 87% 29.75 in 10.0 mi South 5.8 mph - N/A   Clear
8:59 AM 42.3 °F 38.6 °F 39.0 °F 88% 29.76 in 10.0 mi South 5.8 mph - N/A   Clear
9:19 AM 43.2 °F 40.5 °F 39.4 °F 86% 29.76 in 10.0 mi SSE 4.6 mph - N/A   Clear
9:39 AM 44.1 °F 40.1 °F 39.6 °F 84% 29.77 in 10.0 mi South 6.9 mph - N/A   Clear
9:59 AM 45.1 °F 42.0 °F 39.2 °F 80% 29.77 in 10.0 mi South 5.8 mph - N/A   Scattered Clouds
10:19 AM 44.6 °F 40.2 °F 39.6 °F 82% 29.77 in 10.0 mi SSW 8.1 mph - N/A   Mostly Cloudy
10:39 AM 44.8 °F 39.9 °F 40.3 °F 84% 29.78 in 10.0 mi South 9.2 mph - N/A   Scattered Clouds
10:59 AM 44.8 °F 41.6 °F 40.5 °F 85% 29.79 in 10.0 mi South 5.8 mph - N/A   Mostly Cloudy
11:19 AM 44.8 °F 41.6 °F 40.3 °F 84% 29.79 in 10.0 mi SSW 5.8 mph - N/A   Overcast
11:39 AM 45.9 °F 42.9 °F 40.5 °F 81% 29.79 in 10.0 mi South 5.8 mph - N/A   Mostly Cloudy
11:59 AM 46.8 °F - 40.8 °F 80% 29.79 in 10.0 mi SSW 5.8 mph - N/A   Mostly Cloudy
12:19 PM 47.7 °F - 41.5 °F 79% 29.79 in 10.0 mi WSW 3.5 mph - N/A   Mostly Cloudy
12:39 PM 47.3 °F - 39.6 °F 74% 29.80 in 10.0 mi SSW 5.8 mph - N/A   Overcast
12:59 PM 46.9 °F - 38.8 °F 73% 29.80 in 10.0 mi SW 12.7 mph 19.6 mph N/A   Overcast
1:19 PM 44.6 °F 43.1 °F 39.9 °F 84% 29.80 in 7.0 mi SW 3.5 mph - 0.01 in Rain Light Rain
1:39 PM 45.7 °F 41.0 °F 41.0 °F 84% 29.80 in 10.0 mi SW 9.2 mph 16.1 mph 0.01 in   Overcast
1:59 PM 45.5 °F 41.8 °F 39.6 °F 80% 29.80 in 10.0 mi WSW 6.9 mph - 0.01 in   Overcast
2:19 PM 46.8 °F - 39.2 °F 75% 29.79 in 10.0 mi SW 5.8 mph - N/A   Overcast
2:39 PM 47.5 °F - 39.0 °F 72% 29.79 in 10.0 mi SSW 10.4 mph - N/A   Overcast
2:59 PM 48.2 °F - 38.7 °F 70% 29.79 in 10.0 mi SW 5.8 mph - N/A   Overcast
3:19 PM 49.1 °F - 40.1 °F 71% 29.79 in 10.0 mi SSW 3.5 mph - N/A   Mostly Cloudy
3:39 PM 49.6 °F - 38.8 °F 66% 29.78 in 10.0 mi SSW 6.9 mph - N/A   Mostly Cloudy
3:59 PM 50.0 °F - 35.6 °F 58% 29.79 in 10.0 mi SW 8.1 mph - N/A   Scattered Clouds
4:19 PM 50.2 °F - 35.4 °F 57% 29.79 in 10.0 mi SW 8.1 mph - N/A   Scattered Clouds
4:39 PM 49.3 °F - 36.9 °F 62% 29.79 in 10.0 mi SW 8.1 mph - N/A   Scattered Clouds
4:59 PM 50.0 °F - 35.4 °F 57% 29.79 in 10.0 mi SW 5.8 mph 16.1 mph N/A   Mostly Cloudy
5:19 PM 49.1 °F - 34.7 °F 58% 29.79 in 10.0 mi SW 6.9 mph - N/A   Scattered Clouds
5:39 PM 48.7 °F - 35.6 °F 60% 29.79 in 10.0 mi SW 8.1 mph - N/A   Scattered Clouds
5:59 PM 48.6 °F - 36.1 °F 62% 29.79 in 10.0 mi SW 8.1 mph - N/A   Clear
6:19 PM 48.4 °F - 36.5 °F 64% 29.78 in 10.0 mi SW 5.8 mph - N/A   Clear
6:39 PM 48.0 °F - 36.7 °F 65% 29.78 in 10.0 mi SSW 4.6 mph - N/A   Clear
6:59 PM 47.8 °F - 36.5 °F 65% 29.77 in 10.0 mi South 3.5 mph - N/A   Clear
7:19 PM 47.7 °F - 36.5 °F 65% 29.77 in 10.0 mi Calm Calm - N/A   Clear
7:39 PM 45.5 °F 44.2 °F 37.6 °F 74% 29.77 in 10.0 mi South 3.5 mph - N/A   Clear
8:00 PM 44.8 °F 43.3 °F 38.3 °F 78% 29.77 in 10.0 mi SSE 3.5 mph - N/A   Mostly Cloudy
8:19 PM 44.6 °F 42.2 °F 38.5 °F 79% 29.77 in 10.0 mi SE 4.6 mph - N/A   Overcast
8:39 PM 47.3 °F - 37.8 °F 69% 29.77 in 10.0 mi SE 4.6 mph - N/A   Overcast
9:00 PM 47.3 °F - 37.9 °F 70% 29.76 in 10.0 mi ESE 4.6 mph - N/A   Overcast
9:19 PM 47.7 °F - 36.3 °F 65% 29.77 in 10.0 mi SSE 5.8 mph - N/A   Overcast
9:39 PM 47.1 °F - 35.4 °F 64% 29.77 in 10.0 mi South 5.8 mph 17.3 mph N/A Rain Rain
9:59 PM 45.7 °F 39.8 °F 37.6 °F 73% 29.77 in 10.0 mi South 12.7 mph 20.7 mph 0.01 in Rain Light Rain
10:19 PM 44.6 °F 40.2 °F 38.3 °F 79% 29.77 in 10.0 mi South 8.1 mph 17.3 mph N/A Rain Light Rain
10:40 PM 44.1 °F 39.0 °F 39.7 °F 85% 29.76 in 10.0 mi South 9.2 mph - 0.01 in Rain Light Rain
10:59 PM 43.9 °F 39.3 °F 39.9 °F 86% 29.75 in 10.0 mi SSE 8.1 mph - 0.02 in Rain Light Rain
11:19 PM 43.9 °F 41.3 °F 40.6 °F 88% 29.73 in 7.0 mi SE 4.6 mph - 0.01 in Rain Light Rain
11:39 PM 43.7 °F 39.7 °F 41.5 °F 92% 29.72 in 10.0 mi ESE 6.9 mph - 0.03 in Rain Light Rain
11:59 PM 43.3 °F 38.6 °F 41.7 °F 94% 29.70 in 10.0 mi ESE 8.1 mph - 0.04 in Rain Light Rain